Time;durP1;ratioP1;P1;durP2;ratioP2;P2;SDS_P1;SDS_P2;PMS_P1;PMS_P2;Temp;Humidity;BMP_temperature;BMP_pressure;BME280_temperature;BME280_humidity;BME280_pressure;Samples;Min_cycle;Max_cycle;Signal;HPM_P1;HPM_P2
2022/06/17 00:00:39;;;;;;;;;;;16.20;99.90;;;;;;5073588;28;20196;-76
2022/06/17 00:03:04;;;;;;;;;;;16.10;99.90;;;;;;5085562;28;19923;-76
2022/06/17 00:05:30;;;;;;;;;;;16.10;99.90;;;;;;5067105;28;20295;-75
2022/06/17 00:07:55;;;;;;;;;;;16.10;99.90;;;;;;5078855;28;19919;-77
2022/06/17 00:10:23;;;;;;;;;;;16.10;99.90;;;;;;5077135;28;19916;-77
2022/06/17 00:12:49;;;;;;;;;;;16.10;99.90;;;;;;5077870;28;20227;-76
2022/06/17 00:15:15;;;;;;;;;;;16.20;99.90;;;;;;5077146;28;20322;-75
2022/06/17 00:17:44;;;;;;;;;;;16.20;99.90;;;;;;5083773;28;19916;-75
2022/06/17 00:20:13;;;;;;;;;;;16.20;99.90;;;;;;5044356;28;19920;-75
2022/06/17 00:22:40;;;;;;;;;;;16.20;99.90;;;;;;5086505;28;19916;-75
2022/06/17 00:25:13;;;;;;;;;;;16.10;99.90;;;;;;5090473;28;19912;-75
2022/06/17 00:27:38;;;;;;;;;;;16.00;99.90;;;;;;5071911;28;19912;-75
2022/06/17 00:30:13;;;;;;;;;;;15.90;99.90;;;;;;5066421;28;20380;-75
2022/06/17 00:32:39;;;;;;;;;;;15.80;99.90;;;;;;5079954;28;19916;-75
2022/06/17 00:35:04;;;;;;;;;;;15.80;99.90;;;;;;5094724;28;19912;-75
2022/06/17 00:37:30;;;;;;;;;;;15.70;99.90;;;;;;5029225;28;19920;-74
2022/06/17 00:39:56;;;;;;;;;;;15.70;99.90;;;;;;4970990;28;20767;-73
2022/06/17 00:42:22;;;;;;;;;;;15.60;99.90;;;;;;4973747;28;19915;-76
2022/06/17 00:44:51;;;;;;;;;;;15.50;99.90;;;;;;4993265;28;21333;-75
2022/06/17 00:47:21;;;;;;;;;;;15.50;99.90;;;;;;4994665;28;19937;-73
2022/06/17 00:49:49;;;;;;;;;;;15.40;99.90;;;;;;4976206;28;20231;-75
2022/06/17 00:52:37;;;;;;;;;;;15.30;99.90;;;;;;4992929;28;20318;-74
2022/06/17 00:55:22;;;;;;;;;;;15.40;99.90;;;;;;4981574;28;19923;-74
2022/06/17 00:57:47;;;;;;;;;;;15.40;99.90;;;;;;5062533;28;19911;-75
2022/06/17 01:00:14;;;;;;;;;;;15.40;99.90;;;;;;5083440;28;20015;-74
2022/06/17 01:02:42;;;;;;;;;;;15.40;99.90;;;;;;5092745;28;19934;-74
2022/06/17 01:05:09;;;;;;;;;;;15.40;99.90;;;;;;5041362;28;19913;-75
2022/06/17 01:07:54;;;;;;;;;;;15.40;99.90;;;;;;5078524;28;20306;-74
2022/06/17 01:10:20;;;;;;;;;;;15.40;99.90;;;;;;5074383;28;19963;-75
2022/06/17 01:12:52;;;;;;;;;;;15.40;99.90;;;;;;5094673;28;19951;-75
2022/06/17 01:15:21;;;;;;;;;;;15.30;99.90;;;;;;5080613;28;19915;-75
2022/06/17 01:17:47;;;;;;;;;;;15.20;99.90;;;;;;5094620;28;19911;-76
2022/06/17 01:20:13;;;;;;;;;;;15.10;99.90;;;;;;5067780;28;20043;-76
2022/06/17 01:22:39;;;;;;;;;;;15.10;99.90;;;;;;5095141;28;20024;-75
2022/06/17 01:25:07;;;;;;;;;;;15.00;99.90;;;;;;5094301;28;19941;-76
2022/06/17 01:27:35;;;;;;;;;;;15.00;99.90;;;;;;5076465;28;19919;-76
2022/06/17 01:30:01;;;;;;;;;;;14.90;99.90;;;;;;5088615;28;19959;-76
2022/06/17 01:32:29;;;;;;;;;;;14.80;99.90;;;;;;5093503;28;19908;-75
2022/06/17 01:34:55;;;;;;;;;;;14.80;99.90;;;;;;5013114;28;19920;-74
2022/06/17 01:37:20;;;;;;;;;;;14.70;99.90;;;;;;4993535;28;19923;-74
2022/06/17 01:39:46;;;;;;;;;;;14.70;99.90;;;;;;4974380;28;20632;-76
2022/06/17 01:42:12;;;;;;;;;;;14.70;99.90;;;;;;4993555;28;20327;-75
2022/06/17 01:44:39;;;;;;;;;;;14.70;99.90;;;;;;4994334;28;20009;-74
2022/06/17 01:47:07;;;;;;;;;;;14.60;99.90;;;;;;4991808;28;19916;-74
2022/06/17 01:49:37;;;;;;;;;;;14.60;99.90;;;;;;4988998;28;20086;-74
2022/06/17 01:52:14;;;;;;;;;;;14.80;99.90;;;;;;5029683;28;19995;-76
2022/06/17 01:54:57;;;;;;;;;;;14.90;99.90;;;;;;5082435;28;20325;-76
2022/06/17 01:57:26;;;;;;;;;;;15.10;99.90;;;;;;5079190;28;19917;-76
2022/06/17 01:59:53;;;;;;;;;;;15.20;99.90;;;;;;5063606;28;19912;-75
2022/06/17 02:02:20;;;;;;;;;;;15.20;99.90;;;;;;5084750;28;19913;-77
2022/06/17 02:04:50;;;;;;;;;;;15.30;99.90;;;;;;5066729;28;19916;-75
2022/06/17 02:07:19;;;;;;;;;;;15.30;99.90;;;;;;5083419;28;19926;-76
2022/06/17 02:09:45;;;;;;;;;;;15.20;99.90;;;;;;5065076;28;19931;-75
2022/06/17 02:12:13;;;;;;;;;;;15.20;99.90;;;;;;5082444;28;19928;-76
2022/06/17 02:14:39;;;;;;;;;;;15.10;99.90;;;;;;5085110;28;19916;-75
2022/06/17 02:17:04;;;;;;;;;;;15.00;99.90;;;;;;5082534;28;19932;-76
2022/06/17 02:19:32;;;;;;;;;;;15.00;99.90;;;;;;5076532;28;19912;-76
2022/06/17 02:22:00;;;;;;;;;;;14.90;99.90;;;;;;5061711;28;19919;-76
2022/06/17 02:24:26;;;;;;;;;;;14.90;99.90;;;;;;5082472;28;19913;-75
2022/06/17 02:26:52;;;;;;;;;;;14.90;99.90;;;;;;5090402;28;19970;-76
2022/06/17 02:29:18;;;;;;;;;;;14.80;99.90;;;;;;5087686;28;20370;-75
2022/06/17 02:31:44;;;;;;;;;;;14.80;99.90;;;;;;5086824;28;19994;-76
2022/06/17 02:34:11;;;;;;;;;;;14.90;99.90;;;;;;5075609;28;20003;-75
2022/06/17 02:36:42;;;;;;;;;;;14.90;99.90;;;;;;5072637;28;19913;-76
2022/06/17 02:39:10;;;;;;;;;;;15.00;99.90;;;;;;5039817;28;19920;-74
2022/06/17 02:41:35;;;;;;;;;;;15.00;99.90;;;;;;5001972;28;19924;-75
2022/06/17 02:44:04;;;;;;;;;;;14.90;99.90;;;;;;5000369;28;20509;-75
2022/06/17 02:46:38;;;;;;;;;;;14.80;99.90;;;;;;5000106;28;20208;-75
2022/06/17 02:49:06;;;;;;;;;;;14.70;99.90;;;;;;4996817;28;19920;-75
2022/06/17 02:51:33;;;;;;;;;;;14.80;99.90;;;;;;4997297;28;19919;-76
2022/06/17 02:53:59;;;;;;;;;;;14.90;99.90;;;;;;5002935;28;19916;-75
2022/06/17 02:56:26;;;;;;;;;;;14.90;99.90;;;;;;4982651;28;19916;-75
2022/06/17 02:59:10;;;;;;;;;;;14.90;99.90;;;;;;4995864;28;19916;-74
2022/06/17 03:01:36;;;;;;;;;;;15.00;99.90;;;;;;4999684;28;20618;-75
2022/06/17 03:04:06;;;;;;;;;;;14.90;99.90;;;;;;5059536;28;19909;-77
2022/06/17 03:06:40;;;;;;;;;;;14.90;99.90;;;;;;5080164;28;20034;-75
2022/06/17 03:09:24;;;;;;;;;;;15.00;99.90;;;;;;5086281;28;19924;-77
2022/06/17 03:11:53;;;;;;;;;;;15.00;99.90;;;;;;5079172;28;19920;-77
2022/06/17 03:14:19;;;;;;;;;;;15.00;99.90;;;;;;5066947;28;20303;-76
2022/06/17 03:16:47;;;;;;;;;;;15.00;99.90;;;;;;5066007;28;19942;-75
2022/06/17 03:19:13;;;;;;;;;;;15.00;99.90;;;;;;5069277;28;19916;-76
2022/06/17 03:21:38;;;;;;;;;;;15.00;99.90;;;;;;5074493;28;19927;-75
2022/06/17 03:24:11;;;;;;;;;;;15.00;99.90;;;;;;5073603;28;19924;-76
2022/06/17 03:26:57;;;;;;;;;;;15.10;99.90;;;;;;5072085;28;19912;-76
2022/06/17 03:29:24;;;;;;;;;;;15.10;99.90;;;;;;5062676;28;19916;-76
2022/06/17 03:31:54;;;;;;;;;;;15.10;99.90;;;;;;5079643;28;19977;-75
2022/06/17 03:34:35;;;;;;;;;;;15.10;99.90;;;;;;5038628;28;19942;-76
2022/06/17 03:37:09;;;;;;;;;;;15.20;99.90;;;;;;5056706;28;19913;-76
2022/06/17 03:39:39;;;;;;;;;;;15.20;99.90;;;;;;5070765;28;19917;-74
2022/06/17 03:42:12;;;;;;;;;;;15.20;99.90;;;;;;5079372;28;19970;-75
2022/06/17 03:44:43;;;;;;;;;;;15.20;99.90;;;;;;5061666;28;20731;-74
2022/06/17 03:47:16;;;;;;;;;;;15.20;99.90;;;;;;5060556;28;20220;-74
2022/06/17 03:49:43;;;;;;;;;;;15.30;99.90;;;;;;5048748;28;19984;-74
2022/06/17 03:52:18;;;;;;;;;;;15.40;99.90;;;;;;4979034;28;20334;-74
2022/06/17 03:54:45;;;;;;;;;;;15.30;99.90;;;;;;4973245;28;19917;-74
2022/06/17 03:57:11;;;;;;;;;;;15.40;99.90;;;;;;4976428;28;19916;-73
2022/06/17 03:59:38;;;;;;;;;;;15.40;99.90;;;;;;4977281;28;20384;-73
2022/06/17 04:02:06;;;;;;;;;;;15.40;99.90;;;;;;4978200;28;20326;-74
2022/06/17 04:04:34;;;;;;;;;;;15.50;99.90;;;;;;4975009;28;20046;-72
2022/06/17 04:07:00;;;;;;;;;;;15.50;99.90;;;;;;4975091;28;19917;-74
2022/06/17 04:09:28;;;;;;;;;;;15.60;99.90;;;;;;5005150;28;19959;-75
2022/06/17 04:12:01;;;;;;;;;;;15.70;99.90;;;;;;5073436;28;20007;-73
2022/06/17 04:14:48;;;;;;;;;;;15.70;99.90;;;;;;5084084;28;19927;-73
2022/06/17 04:17:16;;;;;;;;;;;15.80;99.90;;;;;;5089973;28;19952;-73
2022/06/17 04:19:42;;;;;;;;;;;15.90;99.90;;;;;;5090491;28;19915;-73
2022/06/17 04:22:16;;;;;;;;;;;15.90;99.90;;;;;;5090748;28;19940;-73
2022/06/17 04:24:43;;;;;;;;;;;15.90;99.90;;;;;;5091214;28;19912;-74
2022/06/17 04:27:10;;;;;;;;;;;16.00;99.90;;;;;;5076617;28;20016;-74
2022/06/17 04:29:37;;;;;;;;;;;16.10;99.90;;;;;;5073854;28;19942;-74
2022/06/17 04:32:18;;;;;;;;;;;16.20;99.90;;;;;;5081311;28;19951;-75
2022/06/17 04:34:43;;;;;;;;;;;16.20;99.90;;;;;;5086129;28;20120;-75
2022/06/17 04:37:14;;;;;;;;;;;16.30;99.90;;;;;;5079883;28;20361;-75
2022/06/17 04:39:44;;;;;;;;;;;16.40;99.90;;;;;;5081945;28;19962;-74
2022/06/17 04:42:18;;;;;;;;;;;16.40;99.90;;;;;;5087964;28;19912;-74
2022/06/17 04:44:44;;;;;;;;;;;16.50;99.90;;;;;;5071421;28;20211;-75
2022/06/17 04:47:12;;;;;;;;;;;16.50;99.90;;;;;;5088582;28;19919;-74
2022/06/17 04:49:42;;;;;;;;;;;16.60;99.90;;;;;;5077630;28;19962;-75
2022/06/17 04:52:11;;;;;;;;;;;16.70;99.90;;;;;;5051370;28;20334;-74
2022/06/17 04:54:38;;;;;;;;;;;16.80;99.90;;;;;;5087958;28;19912;-75
2022/06/17 04:57:04;;;;;;;;;;;16.80;99.90;;;;;;5085321;28;20015;-74
2022/06/17 04:59:30;;;;;;;;;;;16.90;99.90;;;;;;5085868;28;19999;-73
2022/06/17 05:01:55;;;;;;;;;;;16.90;99.90;;;;;;5091442;28;19972;-73
2022/06/17 05:04:22;;;;;;;;;;;17.00;99.90;;;;;;5070513;28;19938;-74
2022/06/17 05:06:47;;;;;;;;;;;17.10;99.90;;;;;;5068221;28;20256;-74
2022/06/17 05:09:13;;;;;;;;;;;17.20;99.90;;;;;;5086692;28;19920;-73
2022/06/17 05:11:41;;;;;;;;;;;17.20;99.90;;;;;;5086129;28;19920;-74
2022/06/17 05:14:30;;;;;;;;;;;17.20;99.90;;;;;;5086019;28;19920;-74
2022/06/17 05:16:56;;;;;;;;;;;17.30;99.90;;;;;;5092741;28;19919;-74
2022/06/17 05:19:22;;;;;;;;;;;17.30;99.90;;;;;;5089775;28;21638;-75
2022/06/17 05:21:48;;;;;;;;;;;17.40;99.90;;;;;;5081653;28;19990;-75
2022/06/17 05:24:14;;;;;;;;;;;17.40;99.90;;;;;;5088950;28;19979;-74
2022/06/17 05:26:39;;;;;;;;;;;17.50;99.90;;;;;;5070056;28;19912;-74
2022/06/17 05:29:08;;;;;;;;;;;17.60;99.90;;;;;;5071853;28;19916;-74
2022/06/17 05:31:35;;;;;;;;;;;17.70;99.90;;;;;;5031438;28;19920;-75
2022/06/17 05:34:01;;;;;;;;;;;17.70;99.90;;;;;;5001658;28;20373;-74
2022/06/17 05:36:27;;;;;;;;;;;17.80;99.90;;;;;;5003186;28;19916;-74
2022/06/17 05:38:53;;;;;;;;;;;17.90;99.90;;;;;;4983800;28;19916;-74
2022/06/17 05:41:21;;;;;;;;;;;17.90;99.90;;;;;;5001615;28;19916;-73
2022/06/17 05:43:48;;;;;;;;;;;18.00;99.90;;;;;;5003879;28;20199;-74
2022/06/17 05:46:13;;;;;;;;;;;18.00;99.90;;;;;;4982981;28;19915;-73
2022/06/17 05:48:39;;;;;;;;;;;18.10;99.90;;;;;;4977982;28;20015;-73
2022/06/17 05:51:05;;;;;;;;;;;18.20;99.90;;;;;;4979732;28;19927;-75
2022/06/17 05:53:30;;;;;;;;;;;18.30;99.90;;;;;;4962138;28;19916;-75
2022/06/17 05:55:56;;;;;;;;;;;18.40;99.90;;;;;;4975716;28;19943;-74
2022/06/17 05:58:22;;;;;;;;;;;18.40;99.90;;;;;;4972968;28;20653;-76
2022/06/17 06:00:48;;;;;;;;;;;18.50;99.90;;;;;;4981458;28;19944;-74
2022/06/17 06:03:18;;;;;;;;;;;18.60;99.90;;;;;;4964700;28;20044;-75
2022/06/17 06:05:44;;;;;;;;;;;18.70;99.90;;;;;;4977968;28;19923;-75
2022/06/17 06:08:09;;;;;;;;;;;18.80;99.90;;;;;;4979043;28;20921;-75
2022/06/17 06:10:35;;;;;;;;;;;18.90;99.90;;;;;;4980765;28;19920;-73
2022/06/17 06:13:03;;;;;;;;;;;18.90;99.90;;;;;;4979643;28;19994;-74
2022/06/17 06:15:35;;;;;;;;;;;18.90;99.90;;;;;;4966864;28;20345;-75
2022/06/17 06:18:01;;;;;;;;;;;18.90;99.90;;;;;;4982079;28;20319;-74
2022/06/17 06:20:27;;;;;;;;;;;18.90;99.90;;;;;;4981836;28;19952;-75
2022/06/17 06:22:52;;;;;;;;;;;18.90;99.90;;;;;;4979897;28;23845;-73
2022/06/17 06:25:18;;;;;;;;;;;19.00;99.90;;;;;;4980129;28;19978;-74
2022/06/17 06:27:44;;;;;;;;;;;19.10;99.90;;;;;;4976904;28;19928;-73
2022/06/17 06:30:20;;;;;;;;;;;19.20;99.90;;;;;;4975023;28;19987;-73
2022/06/17 06:32:49;;;;;;;;;;;19.40;99.90;;;;;;4981029;28;20930;-74
2022/06/17 06:35:15;;;;;;;;;;;19.50;99.90;;;;;;4963346;28;20497;-74
2022/06/17 06:37:41;;;;;;;;;;;19.70;99.90;;;;;;4965594;28;24362;-76
2022/06/17 06:40:07;;;;;;;;;;;19.80;99.90;;;;;;4983602;28;19970;-73
2022/06/17 06:42:32;;;;;;;;;;;19.90;99.90;;;;;;4981339;28;23950;-75
2022/06/17 06:44:58;;;;;;;;;;;19.90;99.90;;;;;;4960935;28;19921;-76
2022/06/17 06:47:23;;;;;;;;;;;19.90;99.90;;;;;;4981994;28;20649;-75
2022/06/17 06:49:49;;;;;;;;;;;20.00;99.90;;;;;;4964810;28;19974;-76
2022/06/17 06:52:16;;;;;;;;;;;20.10;99.90;;;;;;4982198;28;19938;-74
2022/06/17 06:54:42;;;;;;;;;;;20.20;99.90;;;;;;4982936;28;19916;-74
2022/06/17 06:57:09;;;;;;;;;;;20.30;99.90;;;;;;4964694;28;20382;-75
2022/06/17 06:59:34;;;;;;;;;;;20.50;99.90;;;;;;4984434;28;20809;-76
2022/06/17 07:02:00;;;;;;;;;;;20.50;99.90;;;;;;4984949;28;20001;-75
2022/06/17 07:04:25;;;;;;;;;;;20.70;99.90;;;;;;4982193;28;19920;-75
2022/06/17 07:06:51;;;;;;;;;;;20.80;99.90;;;;;;4965144;28;20415;-76
2022/06/17 07:09:17;;;;;;;;;;;20.90;99.90;;;;;;4981393;28;19950;-75
2022/06/17 07:11:42;;;;;;;;;;;21.00;99.90;;;;;;4964919;28;19973;-75
2022/06/17 07:14:08;;;;;;;;;;;21.10;99.90;;;;;;4982808;28;20330;-74
2022/06/17 07:16:33;;;;;;;;;;;21.30;99.90;;;;;;4985446;28;19978;-74
2022/06/17 07:18:59;;;;;;;;;;;21.30;99.90;;;;;;4984309;28;20038;-77
2022/06/17 07:21:25;;;;;;;;;;;21.30;99.90;;;;;;4983771;28;20074;-75
2022/06/17 07:23:50;;;;;;;;;;;21.30;99.90;;;;;;4980399;28;19916;-76
2022/06/17 07:26:18;;;;;;;;;;;21.40;99.90;;;;;;4979251;28;24037;-75
2022/06/17 07:28:44;;;;;;;;;;;21.40;99.90;;;;;;4981227;28;24541;-75
2022/06/17 07:31:10;;;;;;;;;;;21.50;99.90;;;;;;5058047;28;19937;-76
2022/06/17 07:33:36;;;;;;;;;;;21.60;99.90;;;;;;5078396;28;19937;-77
2022/06/17 07:36:03;;;;;;;;;;;21.70;99.90;;;;;;5076401;28;19909;-78
2022/06/17 07:41:15;;;;;;;;;;;21.90;99.90;;;;;;4983962;28;20015;-75
2022/06/17 07:43:41;;;;;;;;;;;22.10;99.90;;;;;;4984717;28;19915;-76
2022/06/17 07:46:07;;;;;;;;;;;22.10;99.90;;;;;;4978613;28;20400;-77
2022/06/17 07:48:33;;;;;;;;;;;22.30;99.90;;;;;;4978523;28;19924;-76
2022/06/17 07:50:59;;;;;;;;;;;22.50;99.90;;;;;;4978616;28;19916;-76
2022/06/17 07:53:26;;;;;;;;;;;22.80;99.90;;;;;;4981629;28;19916;-76
2022/06/17 07:55:52;;;;;;;;;;;23.20;99.90;;;;;;4961850;28;20679;-75
2022/06/17 07:58:18;;;;;;;;;;;23.40;99.90;;;;;;4979630;28;20399;-76
2022/06/17 08:00:44;;;;;;;;;;;23.70;99.90;;;;;;4978433;28;19916;-75
2022/06/17 08:03:10;;;;;;;;;;;24.10;99.90;;;;;;4965036;28;19916;-76
2022/06/17 08:05:39;;;;;;;;;;;24.50;99.90;;;;;;4979020;28;19923;-76
2022/06/17 08:08:07;;;;;;;;;;;24.80;99.90;;;;;;4979121;28;19916;-76
2022/06/17 08:10:33;;;;;;;;;;;25.10;99.90;;;;;;4974327;28;20018;-75
2022/06/17 08:12:59;;;;;;;;;;;25.50;99.10;;;;;;4974841;28;20818;-77
2022/06/17 08:15:24;;;;;;;;;;;25.70;98.40;;;;;;4955024;28;21128;-75
2022/06/17 08:17:50;;;;;;;;;;;25.80;97.90;;;;;;4978489;28;19920;-75
2022/06/17 08:20:18;;;;;;;;;;;26.20;96.90;;;;;;4978117;28;19923;-75
2022/06/17 08:22:43;;;;;;;;;;;26.40;96.40;;;;;;4977904;28;20321;-75
2022/06/17 08:25:09;;;;;;;;;;;26.60;96.70;;;;;;4958507;28;19915;-73
2022/06/17 08:28:04;;;;;;;;;;;26.80;95.50;;;;;;4978740;28;19916;-76
2022/06/17 08:30:31;;;;;;;;;;;27.00;96.40;;;;;;4863755;28;19972;-75
2022/06/17 08:32:57;;;;;;;;;;;27.20;96.20;;;;;;4868951;28;20012;-76
2022/06/17 08:35:25;;;;;;;;;;;27.50;95.10;;;;;;4881783;28;19924;-76
2022/06/17 08:37:52;;;;;;;;;;;27.80;94.70;;;;;;4883700;28;19957;-75
2022/06/17 08:40:32;;;;;;;;;;;27.60;95.30;;;;;;4884019;28;19924;-74
2022/06/17 08:43:07;;;;;;;;;;;27.90;93.50;;;;;;4875778;28;19940;-75
2022/06/17 08:45:35;;;;;;;;;;;28.00;94.20;;;;;;4886466;28;20880;-74
2022/06/17 08:48:19;;;;;;;;;;;28.20;93.70;;;;;;4883795;28;20079;-76
2022/06/17 08:50:54;;;;;;;;;;;28.40;93.30;;;;;;4868497;28;19925;-75
2022/06/17 08:53:30;;;;;;;;;;;28.50;93.30;;;;;;4883793;28;19917;-74
2022/06/17 08:56:13;;;;;;;;;;;28.60;93.00;;;;;;4869176;28;19917;-75
2022/06/17 08:58:54;;;;;;;;;;;28.80;94.10;;;;;;4982205;28;19918;-75
2022/06/17 09:01:25;;;;;;;;;;;28.70;93.40;;;;;;5009443;28;20037;-74
2022/06/17 09:04:09;;;;;;;;;;;28.60;93.50;;;;;;4982473;28;19918;-75
2022/06/17 09:06:46;;;;;;;;;;;28.80;93.80;;;;;;5033669;28;19916;-74
2022/06/17 09:09:14;;;;;;;;;;;28.70;93.20;;;;;;5087781;28;19916;-75
2022/06/17 09:11:58;;;;;;;;;;;28.30;93.20;;;;;;5089143;28;19919;-75
2022/06/17 09:14:24;;;;;;;;;;;28.10;93.10;;;;;;5067630;28;19920;-76
2022/06/17 09:16:49;;;;;;;;;;;28.10;94.20;;;;;;5072312;28;20330;-75
2022/06/17 09:19:18;;;;;;;;;;;28.30;94.20;;;;;;5088512;28;19942;-75
2022/06/17 09:21:50;;;;;;;;;;;28.60;93.00;;;;;;5069726;28;19942;-75
2022/06/17 09:24:42;;;;;;;;;;;28.80;93.50;;;;;;5083858;28;20301;-75
2022/06/17 09:27:15;;;;;;;;;;;29.00;93.70;;;;;;5065004;28;19919;-75
2022/06/17 09:29:41;;;;;;;;;;;29.40;93.30;;;;;;5083641;28;19927;-75
2022/06/17 09:32:16;;;;;;;;;;;29.60;93.20;;;;;;5075404;28;19960;-75
2022/06/17 09:34:41;;;;;;;;;;;29.70;92.30;;;;;;5069568;28;19916;-74
2022/06/17 09:37:10;;;;;;;;;;;29.80;92.20;;;;;;5075598;28;19923;-75
2022/06/17 09:39:41;;;;;;;;;;;29.80;92.20;;;;;;5062144;28;19912;-75
2022/06/17 09:42:19;;;;;;;;;;;29.80;92.40;;;;;;4960280;28;19916;-75
2022/06/17 09:44:51;;;;;;;;;;;30.00;91.60;;;;;;4982439;28;19916;-76
2022/06/17 09:47:30;;;;;;;;;;;30.10;91.10;;;;;;4975261;28;19946;-76
2022/06/17 09:49:56;;;;;;;;;;;30.30;91.50;;;;;;4979578;28;24221;-76
2022/06/17 09:52:38;;;;;;;;;;;30.50;91.20;;;;;;4979082;28;20010;-75
2022/06/17 09:55:06;;;;;;;;;;;30.80;91.30;;;;;;4982358;28;20332;-76
2022/06/17 09:57:58;;;;;;;;;;;30.60;91.00;;;;;;4981179;28;19916;-76
2022/06/17 10:00:26;;;;;;;;;;;30.80;90.40;;;;;;4974573;28;19926;-76
2022/06/17 10:02:53;;;;;;;;;;;30.80;90.80;;;;;;4957678;28;20881;-76
2022/06/17 10:05:19;;;;;;;;;;;30.80;90.70;;;;;;4974549;28;19916;-75
2022/06/17 10:07:53;;;;;;;;;;;30.90;90.20;;;;;;4974221;28;20015;-75
2022/06/17 10:10:23;;;;;;;;;;;31.00;90.10;;;;;;4976690;28;20685;-76
2022/06/17 10:12:58;;;;;;;;;;;31.10;90.10;;;;;;4972930;28;19928;-74
2022/06/17 10:15:23;;;;;;;;;;;31.10;90.10;;;;;;4957535;28;20556;-75
2022/06/17 10:20:36;;;;;;;;;;;31.20;90.10;;;;;;4977840;28;19939;-76
2022/06/17 10:23:14;;;;;;;;;;;31.60;88.80;;;;;;4978103;28;23946;-76
2022/06/17 10:25:46;;;;;;;;;;;31.50;90.70;;;;;;4977482;28;19923;-75
2022/06/17 10:28:30;;;;;;;;;;;31.50;87.30;;;;;;4975074;28;19916;-76
2022/06/17 10:31:01;;;;;;;;;;;31.40;89.60;;;;;;4973325;28;19946;-76
2022/06/17 10:33:29;;;;;;;;;;;31.50;89.20;;;;;;4976920;28;20018;-76
2022/06/17 10:35:55;;;;;;;;;;;31.50;87.80;;;;;;4974847;28;19916;-75
2022/06/17 10:38:24;;;;;;;;;;;31.20;90.00;;;;;;4960254;28;20971;-75
2022/06/17 10:40:49;;;;;;;;;;;30.90;89.70;;;;;;4977902;28;20033;-76
2022/06/17 10:43:20;;;;;;;;;;;30.90;90.70;;;;;;4974348;28;20022;-77
2022/06/17 10:45:55;;;;;;;;;;;31.20;89.00;;;;;;5033059;28;20268;-75
2022/06/17 10:48:41;;;;;;;;;;;31.50;85.60;;;;;;5093197;28;19912;-76
2022/06/17 10:51:07;;;;;;;;;;;31.60;85.80;;;;;;5086404;28;19920;-75
2022/06/17 10:53:40;;;;;;;;;;;31.70;84.60;;;;;;5085249;28;19927;-75
2022/06/17 10:56:09;;;;;;;;;;;31.40;85.10;;;;;;5086029;28;19917;-76
2022/06/17 10:58:35;;;;;;;;;;;31.40;86.90;;;;;;5087409;28;19912;-76
2022/06/17 11:01:05;;;;;;;;;;;31.60;85.60;;;;;;5017796;28;20582;-75
2022/06/17 11:03:35;;;;;;;;;;;31.60;86.80;;;;;;4960107;28;21033;-74
2022/06/17 11:06:07;;;;;;;;;;;31.90;85.80;;;;;;4976598;28;19920;-75
2022/06/17 11:08:39;;;;;;;;;;;31.90;85.30;;;;;;4976222;28;20831;-75
2022/06/17 11:13:52;;;;;;;;;;;32.00;83.80;;;;;;4976148;28;19931;-74
2022/06/17 11:16:20;;;;;;;;;;;32.20;82.90;;;;;;4976302;28;20865;-75
2022/06/17 11:18:50;;;;;;;;;;;32.20;83.10;;;;;;4975889;28;20455;-74
2022/06/17 11:21:21;;;;;;;;;;;31.90;83.50;;;;;;4983979;28;21183;-75
2022/06/17 11:23:49;;;;;;;;;;;32.00;82.50;;;;;;5003759;28;23907;-75
2022/06/17 11:26:27;;;;;;;;;;;31.90;83.10;;;;;;5002820;28;20559;-74
2022/06/17 11:28:58;;;;;;;;;;;31.80;84.40;;;;;;5006033;28;20802;-75
2022/06/17 11:31:23;;;;;;;;;;;31.80;82.10;;;;;;5001872;28;20313;-75
2022/06/17 11:33:51;;;;;;;;;;;31.80;85.00;;;;;;5003332;28;19916;-75
2022/06/17 11:36:19;;;;;;;;;;;32.20;82.10;;;;;;4986257;28;19916;-75
2022/06/17 11:38:45;;;;;;;;;;;32.40;83.70;;;;;;5003952;28;19916;-75
2022/06/17 11:41:11;;;;;;;;;;;32.50;82.40;;;;;;4982645;28;19956;-75
2022/06/17 11:43:42;;;;;;;;;;;32.40;82.40;;;;;;5002859;28;19951;-75
2022/06/17 11:46:15;;;;;;;;;;;32.40;81.70;;;;;;4984262;28;19923;-75
2022/06/17 11:48:42;;;;;;;;;;;32.30;81.40;;;;;;4982432;28;19924;-77
2022/06/17 11:51:13;;;;;;;;;;;32.00;81.30;;;;;;5002045;28;20606;-74
2022/06/17 11:53:43;;;;;;;;;;;31.70;81.60;;;;;;5003535;28;20084;-75
2022/06/17 11:56:09;;;;;;;;;;;31.30;84.90;;;;;;4984325;28;19916;-75
2022/06/17 11:58:52;;;;;;;;;;;31.30;84.30;;;;;;4975167;28;20657;-75
2022/06/17 12:01:18;;;;;;;;;;;30.90;84.60;;;;;;4978359;28;20007;-75
2022/06/17 12:03:45;;;;;;;;;;;30.80;84.40;;;;;;4978308;28;21934;-75
2022/06/17 12:06:25;;;;;;;;;;;30.70;85.70;;;;;;4974847;28;21549;-75
2022/06/17 12:08:54;;;;;;;;;;;31.10;84.00;;;;;;4970537;28;20357;-74
2022/06/17 12:11:26;;;;;;;;;;;31.20;83.00;;;;;;4973406;28;19916;-75
2022/06/17 12:13:54;;;;;;;;;;;31.30;83.50;;;;;;4972241;28;19943;-75
2022/06/17 12:16:29;;;;;;;;;;;31.50;84.90;;;;;;4972745;28;19924;-75
2022/06/17 12:18:56;;;;;;;;;;;31.50;83.20;;;;;;4972652;28;19916;-75
2022/06/17 12:21:22;;;;;;;;;;;31.40;82.90;;;;;;4972504;28;19928;-75
2022/06/17 12:23:56;;;;;;;;;;;31.50;83.90;;;;;;4974398;28;19920;-75
2022/06/17 12:26:32;;;;;;;;;;;31.60;81.80;;;;;;4972467;28;20316;-75
2022/06/17 12:29:07;;;;;;;;;;;31.80;83.30;;;;;;4972531;28;19924;-75
2022/06/17 12:31:45;;;;;;;;;;;31.90;84.30;;;;;;4954749;28;19986;-75
2022/06/17 12:34:16;;;;;;;;;;;32.20;85.30;;;;;;4991118;28;20302;-75
2022/06/17 12:36:46;;;;;;;;;;;32.60;80.50;;;;;;5002072;28;19935;-75
2022/06/17 12:39:12;;;;;;;;;;;32.60;78.30;;;;;;4999744;28;20244;-75
2022/06/17 12:41:42;;;;;;;;;;;32.40;81.80;;;;;;4976268;28;20038;-76
2022/06/17 12:44:23;;;;;;;;;;;32.10;79.70;;;;;;4955875;28;19926;-74
2022/06/17 12:46:59;;;;;;;;;;;32.10;80.30;;;;;;4955858;28;19947;-76
2022/06/17 12:55:17;;;;;;;;;;;32.10;82.50;;;;;;4974222;28;20414;-74
2022/06/17 12:57:55;;;;;;;;;;;32.20;81.90;;;;;;4975797;28;19923;-75
2022/06/17 13:00:20;;;;;;;;;;;32.20;81.80;;;;;;4955128;28;20400;-74
2022/06/17 13:02:52;;;;;;;;;;;32.00;82.00;;;;;;4976930;28;20677;-75
2022/06/17 13:05:44;;;;;;;;;;;31.70;81.50;;;;;;4973289;28;21322;-73
2022/06/17 13:08:28;;;;;;;;;;;32.00;80.50;;;;;;4953263;28;19922;-75
2022/06/17 13:11:06;;;;;;;;;;;31.80;80.00;;;;;;4969229;28;19928;-75
2022/06/17 13:13:31;;;;;;;;;;;31.70;82.00;;;;;;4970083;28;23970;-75
2022/06/17 13:16:06;;;;;;;;;;;31.70;82.50;;;;;;4956158;28;19998;-75
2022/06/17 13:18:56;;;;;;;;;;;31.90;81.20;;;;;;4974066;28;19927;-76
2022/06/17 13:21:27;;;;;;;;;;;31.90;82.00;;;;;;4973604;28;19916;-74
2022/06/17 13:23:59;;;;;;;;;;;32.30;81.70;;;;;;4978342;28;20642;-75
2022/06/17 13:26:46;;;;;;;;;;;32.50;80.50;;;;;;4957541;28;19942;-75
2022/06/17 13:29:30;;;;;;;;;;;32.30;79.90;;;;;;4978924;28;19939;-75
2022/06/17 13:32:00;;;;;;;;;;;32.10;80.30;;;;;;4959059;28;19916;-75
2022/06/17 13:34:26;;;;;;;;;;;32.20;78.00;;;;;;4959547;28;21033;-73
2022/06/17 13:37:05;;;;;;;;;;;32.00;82.30;;;;;;4976388;28;19915;-74
2022/06/17 13:39:33;;;;;;;;;;;32.20;81.60;;;;;;4960602;28;20311;-74
2022/06/17 13:42:00;;;;;;;;;;;32.00;82.50;;;;;;4975965;28;23925;-75
2022/06/17 13:44:49;;;;;;;;;;;32.30;80.40;;;;;;4971471;28;20660;-74
2022/06/17 13:47:14;;;;;;;;;;;32.40;81.30;;;;;;4959631;28;19916;-74
2022/06/17 13:49:59;;;;;;;;;;;32.40;81.20;;;;;;4958967;28;20117;-74
2022/06/17 13:52:33;;;;;;;;;;;32.50;80.10;;;;;;4963154;28;20022;-76
2022/06/17 13:54:59;;;;;;;;;;;32.60;78.60;;;;;;4964363;28;20818;-72
2022/06/17 13:57:24;;;;;;;;;;;32.60;79.70;;;;;;4979620;28;19963;-73
2022/06/17 13:59:54;;;;;;;;;;;32.70;77.70;;;;;;4981686;28;20039;-74
2022/06/17 14:02:19;;;;;;;;;;;32.50;79.70;;;;;;4980269;28;21216;-75
2022/06/17 14:05:00;;;;;;;;;;;32.60;77.90;;;;;;4977873;28;20611;-76
2022/06/17 14:07:44;;;;;;;;;;;32.40;78.40;;;;;;4978107;28;20697;-76
2022/06/17 14:10:29;;;;;;;;;;;32.40;79.10;;;;;;4975393;28;20318;-77
2022/06/17 14:12:55;;;;;;;;;;;32.20;81.90;;;;;;4965161;28;20736;-77
2022/06/17 14:15:29;;;;;;;;;;;32.20;79.30;;;;;;4981185;28;20434;-76
2022/06/17 14:17:56;;;;;;;;;;;32.20;76.10;;;;;;4981416;28;19916;-76
2022/06/17 14:20:25;;;;;;;;;;;32.00;80.00;;;;;;4963628;28;19916;-76
2022/06/17 14:23:09;;;;;;;;;;;31.90;79.40;;;;;;4978699;28;20645;-76
2022/06/17 14:25:47;;;;;;;;;;;31.90;78.60;;;;;;4983100;28;19916;-76
2022/06/17 14:28:31;;;;;;;;;;;31.70;83.30;;;;;;4982194;28;19931;-76
2022/06/17 14:31:15;;;;;;;;;;;31.50;81.60;;;;;;4983850;28;19930;-76
2022/06/17 14:33:43;;;;;;;;;;;31.60;81.90;;;;;;4982893;28;21878;-76
2022/06/17 14:36:14;;;;;;;;;;;32.00;79.60;;;;;;4983471;28;19916;-76
2022/06/17 14:38:53;;;;;;;;;;;32.20;77.80;;;;;;5073464;28;20350;-76
2022/06/17 14:42:05;;;;;;;;;;;32.30;80.80;;;;;;5082472;28;21381;-78
2022/06/17 14:44:36;;;;;;;;;;;32.30;77.80;;;;;;5037240;28;19913;-77
2022/06/17 14:47:29;;;;;;;;;;;32.10;80.10;;;;;;5054854;28;19908;-76